Airfield :
LOGIN :

Register | Disclaimer

   EN    FR    IT 

 










Legend :    VFR   Marginal VFR   IFR   Intensive IFR   Very Intensive IFR
Visi :
Ceiling :
>= 8 km
>= 3000ft
5 to 8 km
1000 to 3000 ft
1500m to 5 km
500 to 1000 ft
800 to 1500m
200 to 500 ft
< 800m
< 200 ft
Symbols :   Thunderstorms  Fog  Heavy snow  Heavy precipitations  Wind > 20 kt
SIGMETs :     Misc.  Thunderstorms  Icing  Turbulence  Mountain Waves  Volcanic Ashes






- Airport Elevation : 2697 ft
- IATA code : BLJ


DABT - Batna

CURRENT METAR :
  • 152000Z 16006KT 9999 SCT026 BKN100 08/01 Q1009

EXPIRED METARs :
  • 151900Z 20009KT 9999 BKN026 09/01 Q1009
  • 151800Z 21009KT 9999 FEW026 09/M00 Q1009

TAF TAF DABT
Valid from the 15 at 18:00 until the 16 at 18:00 UTC


151700Z 1518/1618 22012KT 9999 FEW020 SCT026
PROB30 1518/1524 FEW026TCU FEW030CB
BECMG 1520/1522 14005KT
PROB40 1600/1612 5000 -TSGRRA FEW023TCU FEW026CB
PROB30
TEMPO 1606/1618 3000 SNRA SCT023CB



MET'MAP, your aeronautical weather chart ! - Copyright ORBIFLY December 2007 - Disclaimer

ORBIFLY MET'MAP TEAM :

Programming & Development : Alexandra Zaïnal
Concept & Development : Baudouin d'Aumeries
Co-Development & Prog : Marc-Olivier Méhu
Technical & hardware support : Manuel Goepfert

Contact : metmap@orbifly.com




SOURCES & CREDITS :

   NOAA